x

9410230 - La Jolla, Ca (ljac1) Weather Station

10:54 - Fri 1st Aug 2014 All times are PDT. -7 hours from GMT.

  • Wind
    3mph, 6mph gusts
  • Sea Temp 74°f
  • Luft Temp 70°f
  • Sea Pressure 1012.9mb
  • 9410230 - La Jolla, Ca
  • 9410230 - La Jolla, Ca

More Historic Weather Station data

Upgrade to MSW Pro to gain access to the past 30 days of data for over 8000 Wavebouys and Weather Stations around the globe.

Join Pro

Comparision Forecast

View Surf forecast
   
Fr 08/01 10:54 3 6 mph 1012.9mb 74f 70f
10:48 5 6 mph 1013mb 74f 70f
10:42 5 6 mph 1013mb 74f 70f
10:36 6 7 mph 1012.9mb 74f 70f
10:30 3 7 mph 1012.9mb 74f 70f
10:24 6 8 mph 1012.9mb 74f 70f
10:18 5 7 mph 1012.9mb 74f 70f
10:12 3 6 mph 1012.8mb 74f 70f
10:06 3 5 mph 1012.8mb 74f 70f
10:00 3 5 mph 1012.8mb 74f 70f
9:54 5 6 mph 1012.7mb 75f 70f
9:48 5 6 mph 1012.7mb 75f 70f
9:42 3 5 mph 1012.8mb 74f 70f
9:36 3 5 mph 1012.7mb 74f 70f
9:30 3 5 mph 1012.6mb 74f 70f
9:24 3 5 mph 1012.6mb 74f 70f
9:18 3 5 mph 1012.5mb 74f 70f
9:12 3 5 mph 1012.5mb 74f 70f
9:06 3 5 mph 1012.5mb 74f 70f
9:00 3 6 mph 1012.3mb 74f 70f
8:54 3 6 mph 1012.2mb 74f 70f
8:48 1 5 mph 1012.1mb 74f 70f
8:42 2 3 mph 1012.1mb 74f 70f
8:36 1 3 mph 1012.1mb 74f 70f
8:30  -  mph 1012mb - -
8:24  -  mph 1012mb - -
8:18 3 5 mph - - -
8:00  -  mph 1011.9mb - -
7:54  -  mph 1011.8mb - -
7:48 6 8 mph - - 70f
7:42  -  mph - - 70f
7:36  -  mph - 75f -
7:30 6 8 mph - - -
7:24  -  mph 1011.7mb 74f -
7:18  -  mph 1011.7mb 74f 70f
7:12  -  mph 1011.6mb 73f 70f
7:06 6 7 mph 1011.8mb 72f 70f
7:00 6 7 mph 1011.7mb 72f 70f
6:54 7 8 mph 1011.8mb 73f 70f
6:48 6 7 mph 1011.7mb 73f 70f
6:42 6 7 mph 1011.7mb 74f 71f
6:36 5 6 mph 1011.7mb 75f 71f
6:30 5 6 mph 1011.7mb 75f 71f
6:24 5 6 mph 1011.7mb 75f 72f
6:18 5 6 mph 1011.6mb 75f 72f
6:12 3
mph
1011.7mb 75f 72f
6:06 3 5 mph 1011.8mb 75f 72f
6:00 2 5 mph 1011.7mb 75f 71f
5:54 3 6 mph 1011.7mb 75f 71f
5:48 5 7 mph 1011.7mb 75f 71f
5:42 5 7 mph 1011.7mb 75f 71f
5:36 6 7 mph 1011.7mb 75f 71f
5:30 6
mph
1011.9mb 74f 72f
5:24 3 6 mph 1012mb 74f 72f
5:18 5 6 mph 1012.1mb 73f 71f
5:12 5 6 mph 1012.3mb 72f 72f
5:06 2 3 mph 1012.4mb 72f 72f
5:00 2 3 mph 1012.3mb 73f 73f
4:54 2 6 mph 1012.2mb 73f 72f
4:48 5 6 mph 1012.2mb 74f 71f
4:42 3 6 mph 1012.2mb 74f 72f
4:36 6 7 mph 1012.2mb 74f 71f
4:30 5 7 mph 1012.3mb 74f 72f
4:24 5 8 mph 1012.4mb 74f 71f
4:18 7 9 mph 1012.4mb 74f 72f
4:12 7 8 mph 1012.5mb 73f 72f
4:06 6 8 mph 1012.6mb 73f 72f
4:00 6 7 mph 1012.6mb 73f 72f
3:54 3 6 mph 1012.9mb 74f 73f
3:48 3 6 mph 1013mb 74f 73f
3:42 5 7 mph 1013mb 74f 73f
3:36 6 7 mph 1012.9mb 74f 72f
3:30 5 7 mph 1013mb 73f 72f
3:24 6 7 mph 1013.1mb 73f 72f
3:18 6 7 mph 1013.1mb 73f 71f
3:12 6 8 mph 1013mb 73f 71f
3:06 6 7 mph 1013mb 73f 71f
3:00 6 7 mph 1013mb 73f 71f
2:54 6 7 mph 1013.1mb 73f 71f
2:48 6 7 mph 1013mb 73f 71f
2:42 6 7 mph 1013.1mb 73f 71f
2:36 6 7 mph 1013.2mb 72f 71f
2:30 5 7 mph 1013.2mb 72f 71f
2:24 6 7 mph 1013.1mb 70f 71f
2:18 6 7 mph 1013.1mb 68f 71f
2:12 7 8 mph 1012.9mb 69f 70f
2:06 7 9 mph 1012.8mb 70f 70f
2:00 7 8 mph 1012.9mb 70f 70f
1:54 7 8 mph 1013mb 68f 70f
1:48 6 8 mph 1013.2mb 69f 71f
1:42 6 7 mph 1013.2mb 68f 71f
1:36 5 6 mph 1013.3mb 68f 71f
1:30 6 8 mph 1013.3mb 68f 70f
1:24 6 7 mph 1013.3mb 69f 71f
1:18 5 7 mph 1013.3mb 69f 71f
1:12 6 8 mph 1013.3mb 69f 71f
1:06 7 8 mph 1013.2mb 68f 71f
1:00 7 9 mph 1013.3mb 69f 71f
12:54 7 8 mph 1013.3mb 68f 71f
12:48 7 9 mph 1013.4mb 68f 71f
12:42 8 10 mph 1013.5mb 68f 71f
12:36 7 9 mph 1013.5mb 68f 71f
12:30 8 10 mph 1013.5mb 68f 71f
12:24 7 8 mph 1013.6mb 68f 71f
12:18 6 8 mph 1013.7mb 69f 71f
12:12 7 8 mph 1013.7mb 69f 71f
12:06 7 10 mph 1013.6mb 69f 71f
12:00 8 9 mph 1013.6mb 69f 70f
11:54 8 10 mph 1013.7mb 70f 71f
11:48 8 10 mph 1013.6mb 69f 71f
11:42 8 10 mph 1013.7mb 69f 71f
11:36 8 9 mph 1013.7mb 70f 71f
11:30 6 7 mph 1013.8mb 70f 72f
11:24 6 7 mph 1013.9mb 71f 72f
11:18 5 7 mph 1013.8mb 73f 72f
11:12 6 7 mph 1013.8mb 73f 71f
11:06 7
mph
1013.7mb 73f 71f
11:00 5 6 mph 1013.7mb 73f 72f
10:54 5 8 mph 1013.7mb 73f 71f
10:48 6 7 mph 1013.7mb 73f 72f
10:42 6 7 mph 1013.6mb 73f 71f
10:36 5 7 mph 1013.7mb 73f 71f
10:30 5 7 mph 1013.7mb 73f 72f
10:24 6 7 mph 1013.5mb 73f 72f
10:18 5 7 mph 1013.5mb 73f 72f
10:12 5 6 mph 1013.5mb 73f 71f
10:06 5 6 mph 1013.6mb 73f 71f
10:00 5 6 mph 1013.6mb 73f 71f
9:54 5 6 mph 1013.6mb 73f 72f
9:48 3 5 mph 1013.6mb 73f 73f
9:42  -  1 mph 1013.6mb 73f 74f
9:36 1 2 mph 1013.6mb 73f 72f
9:30  -  5 mph 1013.5mb 73f 71f
9:24 2 5 mph 1013.5mb 72f 70f
9:18 3 6 mph 1013.5mb 72f 70f
9:12 5 6 mph 1013.5mb 71f 70f
9:06 3 5 mph 1013.4mb 71f 70f
9:00 2 3 mph 1013.5mb 71f 71f
8:54 2 3 mph 1013.5mb 71f 71f
8:48 2 3 mph 1013.5mb 71f 70f
8:42  -  2 mph 1013.4mb 71f 71f
8:36 2 5 mph 1013.4mb 71f 70f
8:30 3
mph
1013.3mb 70f 70f
8:24 2 3 mph 1013.3mb 71f 70f
8:18 2 5 mph 1013.4mb 71f 70f
8:12 3 5 mph 1013.4mb 70f 70f
8:06 3
mph
1013.3mb 71f 70f
8:00 2 3 mph 1013.3mb 72f 70f
7:54 2 3 mph 1013.2mb 72f 70f
7:48  -  1 mph 1013.3mb 72f 70f
7:42 1 3 mph 1013.2mb 72f 69f
7:36  -  2 mph 1013.1mb 72f 69f
7:30 1 2 mph 1013.1mb 72f 69f
7:24 1 3 mph 1013.1mb 72f 69f
7:18 2 5 mph 1013.2mb 71f 69f
7:12 2 3 mph 1013.2mb 70f 69f
7:06 1 2 mph 1013.1mb 69f 69f
7:00  -  1 mph 1013.1mb 69f 69f
6:54 1 2 mph 1013.1mb 69f 69f
6:48 2 5 mph 1013.2mb 70f 69f
6:42 2 5 mph 1013.1mb 69f 69f
6:36 3 6 mph 1013.1mb 69f 69f
6:30 3 5 mph 1013.1mb 69f 69f
6:24  -  5 mph 1013.2mb 70f 69f
6:18 5 6 mph 1013.1mb 72f 69f
6:12 3 6 mph 1013.1mb 73f 69f
6:06 2 3 mph 1012.9mb 73f 69f
6:00 2 3 mph 1012.7mb 72f 69f
5:54 2
mph
1012.6mb 72f 69f
5:48  -  2 mph 1012.7mb 72f 69f
5:42 1 2 mph 1012.7mb 72f 69f
5:36 3 6 mph 1012.7mb 71f 69f
5:30 1 2 mph 1012.7mb 72f 69f
5:24 1 2 mph 1012.6mb 72f 69f
5:18 2 3 mph 1012.6mb 71f 69f
5:12  -  2 mph 1012.5mb 72f 69f
5:06  -  2 mph 1012.5mb 71f 69f
5:00 2 3 mph 1012.5mb 69f 69f
4:54 3
mph
1012.5mb 70f 69f
4:48 2 6 mph 1012.5mb 70f 69f
4:42 3 5 mph 1012.5mb 69f 69f
4:36  -  5 mph 1012.5mb 68f 69f
4:30 1 2 mph 1012.6mb 69f 69f
4:24 2 3 mph 1012.6mb 69f 69f
4:18 1 2 mph 1012.6mb 69f 69f
4:12 2 3 mph 1012.6mb 69f 69f
4:06  -  3 mph 1012.7mb 69f 69f
4:00 1 2 mph 1012.8mb 69f 69f
3:54 2 3 mph 1012.7mb 70f 69f
3:48 2 3 mph 1012.7mb 69f 69f
3:42 2 3 mph 1012.8mb 69f 69f
3:36 2 3 mph 1012.8mb 70f 69f
3:30 2 3 mph 1012.8mb 71f 69f
3:24 2 3 mph 1012.8mb 72f 69f
3:18 2 3 mph 1012.8mb 72f 69f
3:12 3 6 mph 1012.8mb 72f 69f
3:06 6
mph
1013mb 72f 69f
3:00 6
mph
1012.9mb 70f 69f
2:54 5 6 mph 1012.9mb 70f 69f
2:48 5
mph
1013mb 69f 69f
2:42 3 5 mph 1013mb 69f 69f
2:36 5 6 mph 1013mb 69f 69f
2:30 5 6 mph 1013mb 69f 69f
2:24 5 6 mph 1013.1mb 69f 69f
2:18 6
mph
1013.1mb 69f 69f
2:12 5
mph
1013.1mb 69f 69f
2:06 3 5 mph 1013.1mb 69f 69f
2:00 2 3 mph 1013.1mb 69f 69f
1:54 3
mph
1013.1mb 70f 69f
1:48  -  6 mph 1013mb 71f 69f
1:42 3 6 mph 1013.1mb 72f 69f
1:36 1 2 mph 1013.2mb 73f 69f
1:30 2 6 mph 1013.2mb 73f 69f
1:24 2 3 mph 1013.2mb 74f 69f
1:18 3 5 mph 1013.3mb 74f 69f
1:12 5 6 mph 1013.4mb 74f 69f
1:06 3 5 mph 1013.4mb 74f 69f
1:00 5 6 mph 1013.5mb 74f 69f
12:54 5 6 mph 1013.4mb 74f 69f
12:48 6 7 mph 1013.5mb 74f 69f
12:42 8 9 mph 1013.6mb 74f 69f
12:36 7 8 mph 1013.6mb 74f 69f
12:30 6 7 mph 1013.6mb 74f 69f
12:24 3 6 mph 1013.6mb 74f 70f
12:18 5 6 mph 1013.6mb 74f 70f
12:12 3 6 mph 1013.5mb 73f 70f
12:06 3 7 mph 1013.5mb 74f 70f
12:00 2 5 mph 1013.6mb 74f 70f
Do 07/31 11:54 5 7 mph 1013.6mb 74f 70f
11:48 3 5 mph 1013.6mb 74f 70f
11:42  -  2 mph 1013.6mb 74f 70f
11:36 2 7 mph 1013.7mb 74f 70f
11:30 6 8 mph 1013.7mb 74f 70f
11:24 3 7 mph 1013.8mb 74f 70f
11:18 5 8 mph 1013.9mb 74f 70f
11:12 6 7 mph 1013.8mb 74f 70f
11:06 6 7 mph 1013.7mb 74f 70f
11:00 6 7 mph 1013.8mb 74f 70f
10:54 5 6 mph 1013.7mb 74f 70f
10:48 6 9 mph 1013.8mb 74f 70f
10:42 6 9 mph 1013.7mb 74f 70f
10:36 8 10 mph 1013.8mb 74f 70f
10:30 7 8 mph 1013.9mb 74f 70f
10:24 6 9 mph 1013.9mb 74f 70f
10:18 7 8 mph 1013.9mb 74f 70f
10:12 6 8 mph 1013.9mb 74f 70f
10:06 7 8 mph 1013.8mb 74f 70f
10:00 9 11 mph 1013.8mb 74f 70f
9:54 7 8 mph 1013.6mb 74f 70f
9:48 6 8 mph 1013.6mb 74f 70f
9:42 6 8 mph 1013.6mb 74f 70f
9:36 6 8 mph 1013.5mb 74f 70f
9:30 6 7 mph 1013.5mb 74f 70f
9:24 5 7 mph 1013.4mb 74f 70f
9:18 3 6 mph 1013.4mb 74f 70f
9:12 2 6 mph 1013.3mb 74f 70f
9:06 6 7 mph 1013.3mb 74f 70f
9:00 6 7 mph 1013.1mb 74f 70f
8:54 3 6 mph 1013mb 74f 70f
8:48 3 6 mph 1012.9mb 74f 70f
8:42 5 6 mph 1012.8mb 74f 70f
8:36 5 6 mph 1012.7mb 74f 70f
8:30 5 6 mph 1012.6mb 74f 70f
8:24 5 6 mph 1012.5mb 74f 70f
8:18 5 6 mph 1012.6mb 74f 70f
8:12 6 7 mph 1012.5mb 74f 70f
8:06 3 6 mph 1012.4mb 74f 70f
8:00 3 6 mph 1012.4mb 75f 70f
7:54 5
mph
1012.3mb 75f 70f
7:48 3 6 mph 1012.2mb 74f 71f
7:42 5
mph
1012.1mb 74f 71f
7:36 3 5 mph 1012.1mb 74f 71f
7:30 5 7 mph 1012.1mb 74f 71f
7:24 6 7 mph 1011.9mb 74f 71f
7:18 6 7 mph 1011.9mb 75f 71f
7:12 6 7 mph 1011.8mb 75f 71f
7:06 6 8 mph 1011.8mb 74f 71f
7:00 7 9 mph 1011.8mb 74f 71f
6:54 7 9 mph 1011.7mb 74f 71f
6:48 6 8 mph 1011.8mb 74f 71f
6:42 7 8 mph 1011.8mb 74f 71f
6:36 6 8 mph 1011.7mb 74f 71f
6:30 6 8 mph 1011.6mb 74f 71f
6:24 7 8 mph 1011.7mb 74f 71f
6:18 7 8 mph 1011.6mb 73f 72f
6:12 6 8 mph 1011.6mb 74f 72f
6:06 6 9 mph 1011.7mb 75f 72f
6:00 6 8 mph 1011.7mb 74f 72f
5:54 7 9 mph 1011.7mb 74f 72f
5:48 6 8 mph 1011.7mb 75f 72f
5:42 7 9 mph 1011.6mb 74f 72f
5:36 6 8 mph 1011.6mb 73f 73f
5:30 7 9 mph 1011.6mb 71f 72f
5:24 8 9 mph 1011.5mb 70f 72f
5:18 8 9 mph 1011.5mb 73f 72f
5:12 8 9 mph 1011.5mb 75f 72f
5:06 8 9 mph 1011.6mb 75f 73f
5:00 8 9 mph 1011.6mb 74f 73f
4:54 7 9 mph 1011.7mb 74f 73f
4:48 7 9 mph 1011.7mb 73f 73f
4:42 8
mph
1011.7mb 74f 73f
4:36 7 8 mph 1011.7mb 74f 73f
4:00 8 9 mph 1011.9mb 73f 73f
3:54 8 9 mph 1012mb 73f 73f
3:48 8 10 mph 1012.1mb 73f 73f
3:42 8 9 mph 1012.1mb 73f 73f
3:36 8 9 mph 1012.1mb 72f 73f
3:30 7 9 mph 1012.2mb 72f 73f
3:24 8 10 mph 1012.2mb 71f 73f
3:18 8 10 mph 1012.2mb 70f 73f
3:12 7 10 mph 1012.3mb 70f 73f
3:06 9 10 mph 1012.3mb 70f 73f
3:00 8 11 mph 1012.3mb 69f 73f
2:54 8 10 mph 1012.4mb 69f 73f
2:48 9 11 mph 1012.4mb 69f 73f
2:42 8 10 mph 1012.5mb 69f 73f
2:36 8 9 mph 1012.5mb 69f 73f
2:30 8 10 mph 1012.6mb 69f 73f
2:24 10 11 mph 1012.6mb 69f 73f
2:18 10 11 mph 1012.7mb 70f 73f
2:12 10 11 mph 1012.7mb 70f 74f
2:06 9 10 mph 1012.7mb 71f 74f
2:00 7 9 mph 1012.7mb 72f 74f
1:54 6 8 mph 1012.7mb 72f 74f
1:48 7 8 mph 1012.8mb 71f 74f
1:42 7 9 mph 1012.9mb 73f 73f
1:36 7 8 mph 1012.9mb 73f 73f
1:30 6 8 mph 1013mb 72f 73f
1:24 6 8 mph 1013mb 70f 73f
1:18 7 8 mph 1012.9mb 71f 73f
1:12 6 8 mph 1013mb 70f 73f
1:06 6 7 mph 1013.1mb 70f 73f
1:00 6 7 mph 1013.1mb 69f 74f
12:54 6 7 mph 1013.1mb 69f 73f
12:48 5 7 mph 1013.2mb 70f 74f
12:42 5 7 mph 1013.2mb 70f 73f
12:36 6 7 mph 1013.3mb 69f 73f
12:30 5 7 mph 1013.3mb 69f 73f
12:24 5 6 mph 1013.3mb 69f 73f
12:18 5 7 mph 1013.2mb 69f 73f
12:12 6 7 mph 1013.2mb 69f 73f
12:06 6 8 mph 1013.3mb 69f 72f
12:00 5 7 mph 1013.3mb 69f 73f
11:54 5 7 mph 1013.4mb 69f 73f
11:48 5 7 mph 1013.4mb 69f 72f
11:42 6 7 mph 1013.4mb 69f 72f
11:36 6 8 mph 1013.4mb 69f 72f
11:30 5 7 mph 1013.5mb 69f 72f
11:24 6 7 mph 1013.5mb 70f 72f
11:18 6 7 mph 1013.5mb 70f 71f
11:12 6 8 mph 1013.6mb 71f 71f
11:06 6 8 mph 1013.6mb 71f 71f
11:00 6 8 mph 1013.6mb 72f 71f
10:54 6 8 mph 1013.6mb 71f 71f
10:48 6 7 mph 1013.6mb 71f 71f
10:42 6 8 mph 1013.7mb 71f 71f
10:36 6 7 mph 1013.8mb 70f 71f
10:30 6 7 mph 1013.8mb 70f 71f
10:24 6 7 mph 1013.8mb 70f 72f
10:18 6 7 mph 1013.7mb 70f 72f
10:12 6 7 mph 1013.7mb 70f 72f
10:06 5 6 mph 1013.7mb 70f 72f
10:00 5 6 mph 1013.6mb 71f 72f
9:54 5 6 mph 1013.7mb 71f 72f
9:48 5 6 mph 1013.7mb 71f 72f
9:42 3 5 mph 1013.7mb 71f 72f
9:36 3 5 mph 1013.7mb 71f 72f
9:30 5 6 mph 1013.7mb 71f 72f
9:24 5 6 mph 1013.6mb 71f 73f
9:18 2 3 mph 1013.6mb 71f 73f
9:12 2 3 mph 1013.7mb 71f 74f
9:06 2 5 mph 1013.8mb 71f 73f
9:00 3 5 mph 1013.9mb 71f 73f
8:54 3 5 mph 1013.9mb 71f 73f
8:48 3 5 mph 1013.9mb 72f 73f
8:42 2 3 mph 1013.9mb 71f 73f
8:36 2 5 mph 1014mb 71f 73f
8:30 3 5 mph 1013.9mb 71f 72f
8:24 5
mph
1013.9mb 71f 72f
8:18 5 6 mph 1013.8mb 70f 72f
8:12 3 5 mph 1013.8mb 69f 72f
8:06 3 5 mph 1013.8mb 69f 72f
8:00 6 7 mph 1013.8mb 69f 72f
7:54 3 6 mph 1013.7mb 68f 73f
7:48 2 3 mph 1013.7mb 67f 73f
7:42 1 2 mph 1013.7mb 67f 73f
7:36 1 3 mph 1013.7mb 67f 72f
7:30 2 5 mph 1013.7mb 67f 72f
7:24 3 5 mph 1013.8mb 67f 72f
7:18 1
mph
1013.8mb 67f 72f
7:12 1 5 mph 1013.8mb 67f 72f
7:06 3 5 mph 1013.7mb 67f 71f
7:00 3 6 mph 1013.7mb 67f 71f
6:54 3 5 mph 1013.7mb 67f 71f
6:48 1 6 mph 1013.7mb 67f 71f
6:42 3 5 mph 1013.7mb 68f 71f
6:36 5
mph
1013.7mb 67f 71f
6:30 5 6 mph 1013.8mb 68f 71f
6:24 5 6 mph 1013.7mb 68f 71f
6:18 2 3 mph 1013.6mb 68f 71f
6:12 1 2 mph 1013.6mb 68f 71f
6:06 1 2 mph 1013.5mb 67f 71f
6:00 3 5 mph 1013.4mb 67f 71f
5:54 2
mph
1013.3mb 68f 71f
5:48 1 2 mph 1013.3mb 68f 71f
5:42 2
mph
1013.2mb 68f 71f
5:36 2 3 mph 1013.2mb 68f 71f
5:30 2 3 mph 1013.2mb 68f 71f
5:24  -  2 mph 1013.2mb 69f 71f
5:18 2 5 mph 1013.2mb 71f 71f
5:12 2 3 mph 1013.1mb 72f 71f
5:06 1
mph
1013.1mb 73f 71f
5:00 1 2 mph 1013mb 72f 71f
4:54  -  2 mph 1012.9mb 72f 71f
4:48 2
mph
1012.9mb 72f 71f
4:42 1 2 mph 1012.9mb 70f 71f
4:36 2 3 mph 1013mb 72f 71f
4:30 3
mph
1013mb 71f 71f
4:24 2 3 mph 1013mb 71f 71f
4:18 3
mph
1013.1mb 72f 71f
4:12 2
mph
1013.1mb 73f 71f
4:06 2
mph
1013.1mb 73f 71f
4:00 3
mph
1013mb 73f 71f
3:54 2 3 mph 1013.1mb 73f 71f
3:48 2 3 mph 1013.1mb 73f 71f
3:42 1 3 mph 1013mb 73f 71f
3:36 2
mph
1013.1mb 73f 71f
3:30 2 3 mph 1013.2mb 73f 71f
3:24  -  1 mph 1013.2mb 73f 71f
3:18  -  1 mph 1013.1mb 73f 71f
3:12 1 2 mph 1013.1mb 72f 71f
3:06  -  2 mph 1013mb 71f 71f
3:00  -  3 mph 1012.9mb 71f 71f
2:54 3 5 mph 1013mb 71f 71f
2:48 1 3 mph 1013.1mb 71f 71f
2:42  -  2 mph 1013.1mb 71f 71f
2:36 3 5 mph 1013.2mb 71f 71f
2:30 2 3 mph 1013.2mb 71f 71f
2:24  -  2 mph 1013.2mb 71f 71f
2:18  -  2 mph 1013.3mb 71f 71f
2:12  -  mph 1013.2mb 71f 71f
2:06  -  mph 1013.4mb 71f 71f
2:00  -  mph 1013.5mb 70f 70f
1:54  -  1 mph 1013.5mb 70f 70f
1:48 1 2 mph 1013.6mb 69f 71f
1:42  -  2 mph 1013.6mb 69f 71f
1:36  -  1 mph 1013.7mb 69f 71f
1:30 1 2 mph 1013.9mb 69f 71f
1:24 1 2 mph 1013.8mb 69f 71f
1:18 2 3 mph 1013.7mb 69f 71f
1:12 2 3 mph 1013.7mb 69f 71f
1:06 1 2 mph 1013.8mb 69f 71f
1:00 1 2 mph 1013.7mb 69f 71f
12:54  -  mph 1013.7mb 69f 71f
12:48  -  mph 1013.6mb 69f 71f
12:42  -  mph 1013.7mb 69f 71f
12:36  -  1 mph 1013.8mb 69f 71f
12:30  -  2 mph 1013.7mb 70f 71f
12:24 2 3 mph 1013.7mb 70f 71f
12:18 2 3 mph 1013.7mb 69f 71f
12:06  -  2 mph 1013.7mb 70f 71f
12:00  -  2 mph 1013.7mb 70f 71f
Mi 07/30 11:54  -  mph 1013.7mb 70f 71f
11:48  -  2 mph 1013.7mb 70f 71f
11:42 1 2 mph 1013.8mb 70f 71f
11:36  -  2 mph 1013.9mb 71f 71f
11:30 2 3 mph 1013.9mb 71f 71f
11:24 2 3 mph 1013.8mb 71f 71f
11:18  -  1 mph 1013.9mb 71f 71f
11:12  -  mph 1013.9mb 71f 71f
11:06  -  3 mph 1013.9mb 71f 71f
11:00 1 3 mph 1013.9mb 71f 71f
10:54 3
mph
1014mb 71f 71f
10:48 1 2 mph 1014mb 72f 71f
10:42  -  3 mph 1014mb 71f 71f
10:36 2 3 mph 1014mb 71f 71f
10:30 2 3 mph 1013.9mb 71f 71f
10:24 2 5 mph 1014mb 72f 71f
10:18 3 6 mph 1014mb 72f 71f
10:12 5 6 mph 1013.9mb 73f 71f
10:06 5 6 mph 1013.9mb 73f 72f
10:00 5 6 mph 1013.9mb 73f 72f
9:54 6
mph
1013.9mb 73f 72f
9:48 6 7 mph 1013.9mb 73f 72f
9:42 6 7 mph 1013.9mb 73f 72f
9:36 6 7 mph 1013.9mb 73f 72f
9:30 6 7 mph 1013.9mb 73f 72f
9:24 6 7 mph 1013.9mb 73f 72f
9:18 6 7 mph 1013.8mb 73f 72f
9:12 6 7 mph 1013.7mb 72f 72f
9:06 6 7 mph 1013.7mb 71f 72f
9:00 6
mph
1013.7mb 71f 72f
8:54 5 6 mph 1013.7mb 71f 72f
8:48 6 7 mph 1013.7mb 71f 72f
8:42 5 6 mph 1013.7mb 71f 72f
8:36 5 6 mph 1013.6mb 71f 72f
8:30 3 5 mph 1013.6mb 71f 71f
8:24 5
mph
1013.5mb 72f 71f
8:18 3 5 mph 1013.4mb 72f 72f
8:12 5 6 mph 1013.4mb 72f 72f
8:06 5 6 mph 1013.4mb 72f 72f
8:00 6
mph
1013.3mb 72f 72f
7:54 5 6 mph 1013.3mb 72f 72f
7:48 5 6 mph 1013.2mb 73f 72f
7:42 5 6 mph 1013.1mb 73f 72f
7:36 5 6 mph 1013mb 73f 72f
7:30 5 6 mph 1013mb 73f 72f
7:24 5 6 mph 1012.9mb 73f 73f
7:18 3 6 mph 1012.9mb 73f 73f
7:12 3 6 mph 1012.8mb 72f 73f
7:06 5 6 mph 1012.8mb 72f 73f
7:00 3 5 mph 1012.7mb 71f 73f
6:54 5
mph
1012.7mb 71f 73f
6:48 5 6 mph 1012.8mb 71f 74f
6:42 3 5 mph 1012.8mb 71f 74f
6:36 3 5 mph 1012.8mb 71f 74f
6:30 3 6 mph 1012.8mb 71f 74f
6:24 3 6 mph 1012.8mb 71f 74f
6:18 5
mph
1012.7mb 71f 74f
6:12 5 6 mph 1012.7mb 71f 74f
6:06 5 6 mph 1012.7mb 71f 74f
6:00 5 6 mph 1012.7mb 70f 74f
5:54 3 5 mph 1012.8mb 70f 74f
5:48 5 6 mph 1012.8mb 71f 74f
5:42 3 5 mph 1012.8mb 71f 74f
5:36 5 6 mph 1012.8mb 71f 74f
5:30 5 6 mph 1012.9mb 70f 74f
5:24 5 6 mph 1012.9mb 70f 74f
5:18 2 5 mph 1013mb 70f 75f
5:12 5 6 mph 1012.9mb 70f 74f
5:06 3 5 mph 1013mb 70f 74f
5:00 3 6 mph 1013mb 71f 74f
4:54 3 5 mph 1013.1mb 71f 74f
4:48 3 6 mph 1013.1mb 71f 74f
4:42 5 6 mph 1013.1mb 72f 74f
4:36 3 6 mph 1013.1mb 72f 74f
4:30 5 6 mph 1013.1mb 72f 74f
4:24 3 6 mph 1013.2mb 72f 75f
4:18 3 6 mph 1013.2mb 72f 75f
4:12 5 6 mph 1013.3mb 72f 74f
4:06 3 6 mph 1013.3mb 73f 74f
4:00 5 6 mph 1013.4mb 73f 74f
3:54 5 6 mph 1013.5mb 73f 74f
3:48 6
mph
1013.6mb 73f 74f
3:42 5 6 mph 1013.6mb 73f 74f
3:36 5 6 mph 1013.7mb 73f 74f
3:30 5 6 mph 1013.7mb 73f 73f
3:24 6 7 mph 1013.7mb 73f 74f
3:18 6 8 mph 1013.7mb 73f 74f
3:12 6 8 mph 1013.8mb 73f 74f
3:06 6 7 mph 1013.9mb 73f 74f
3:00 7 8 mph 1014.1mb 71f 74f
2:54 7 8 mph 1014mb 70f 74f
2:48 6 7 mph 1014.1mb 70f 75f
2:42 6 7 mph 1014.1mb 71f 74f
2:36 6 8 mph 1014.2mb 72f 75f
2:30 6 7 mph 1014.2mb 72f 74f
2:24 6 7 mph 1014.2mb 72f 74f
2:18 6 7 mph 1014.2mb 72f 74f
2:12 6 7 mph 1014.2mb 73f 74f
2:06 6 7 mph 1014.2mb 73f 74f
2:00 6 8 mph 1014.2mb 73f 74f
1:54 6 7 mph 1014.3mb 73f 74f
1:48 6 7 mph 1014.4mb 73f 74f
1:42 6 7 mph 1014.5mb 73f 74f
1:36 6 7 mph 1014.5mb 73f 74f
1:30 5 7 mph 1014.4mb 73f 74f
1:24 6 7 mph 1014.4mb 74f 73f
1:18 6
mph
1014.4mb 74f 73f
1:12 6
mph
1014.4mb 74f 73f
1:06 6 7 mph 1014.4mb 73f 73f
1:00 5 7 mph 1014.4mb 73f 73f
12:54 5 6 mph 1014.5mb 73f 73f
12:48 5 6 mph 1014.5mb 73f 73f
12:42 6
mph
1014.5mb 71f 73f
12:36 5 6 mph 1014.5mb 70f 74f
12:30 3 5 mph 1014.5mb 70f 73f
12:24 5 6 mph 1014.5mb 68f 73f
12:18 3 6 mph 1014.5mb 68f 73f
12:12 5 6 mph 1014.5mb 68f 73f
12:06 5 6 mph 1014.5mb 68f 73f
12:00 5
mph
1014.5mb 68f 74f
11:54 3 5 mph 1014.5mb 67f 74f
11:48 3 5 mph 1014.6mb 67f 74f
11:42 3 5 mph 1014.7mb 67f 73f
11:36 3 5 mph 1014.7mb 67f 73f
11:30 3 5 mph 1014.7mb 67f 74f
11:24 3 5 mph 1014.8mb 67f 73f
11:18 3 5 mph 1014.8mb 67f 73f
11:12 3 5 mph 1014.8mb 67f 74f
11:06 2 5 mph 1014.9mb 67f 74f
11:00 3 5 mph 1014.8mb 68f 74f
10:54 3 5 mph 1014.9mb 68f 73f
10:48 3 5 mph 1015mb 68f 73f
10:42 3 5 mph 1015.1mb 68f 73f
10:36 2 5 mph 1015mb 68f 74f
10:30 3 5 mph 1015mb 68f 73f
10:24 3 5 mph 1015mb 68f 74f
10:18 3
mph
1015mb 68f 73f
10:12 2 5 mph 1015mb 69f 74f
10:06 2 5 mph 1015mb 68f 74f
10:00 3 5 mph 1014.9mb 69f 73f
9:54 2 5 mph 1014.9mb 69f 73f
9:48 5
mph
1014.9mb 69f 72f
9:42 5 6 mph 1014.9mb 69f 72f
9:36 3 5 mph 1014.9mb 69f 73f
9:30 3 5 mph 1014.9mb 69f 72f
9:24 3 5 mph 1014.8mb 69f 73f
9:18 3 5 mph 1014.8mb 69f 72f
9:12 3 5 mph 1014.8mb 69f 72f
9:06 2 3 mph 1014.7mb 69f 72f
9:00 3 5 mph 1014.8mb 69f 72f
8:54 3 5 mph 1014.9mb 69f 72f
8:48 3
mph
1014.8mb 69f 72f
8:42 3
mph
1014.7mb 69f 73f
8:36 2 3 mph 1014.7mb 69f 73f
8:30 2 3 mph 1014.7mb 69f 74f
8:24 2
mph
1014.7mb 69f 75f
8:18  -  mph 1014.7mb 69f 77f
8:12  -  1 mph 1014.6mb 70f 77f
8:06  -  1 mph 1014.7mb 69f 76f
8:00  -  mph 1014.7mb 69f 78f
7:54  -  mph 1014.6mb 69f 77f
7:48  -  mph 1014.6mb 69f 76f
7:42  -  mph 1014.5mb 69f 76f
7:36  -  mph 1014.4mb 69f 75f
7:30  -  mph 1014.5mb 69f 73f
7:24  -  1 mph 1014.5mb 69f 72f
7:18  -  1 mph 1014.4mb 69f 71f
7:12 1
mph
1014.4mb 69f 71f
7:06  -  1 mph 1014.3mb 69f 71f
7:00  -  mph 1014.3mb 69f 71f
6:54  -  1 mph 1014.3mb 69f 70f
6:48  -  mph 1014.2mb 69f 70f
6:42  -  mph 1014.1mb 69f 70f
6:36  -  2 mph 1014.1mb 69f 70f
6:30 2 3 mph 1014.1mb 69f 69f
6:24 2
mph
1014.2mb 69f 69f
6:18 1 2 mph 1014.1mb 69f 69f
6:12  -  1 mph 1014.2mb 69f 69f
6:06 1 2 mph 1014.1mb 69f 69f
6:00  -  mph 1014.1mb 69f 70f
5:54 1 3 mph 1014mb 70f 70f
5:48 2 3 mph 1014.1mb 70f 70f
5:42 3 5 mph 1014mb 70f 70f
5:36 2
mph
1014mb 70f 70f
5:30 1 2 mph 1014.1mb 70f 70f
5:24 2
mph
1014mb 70f 70f
5:18 2 3 mph 1014.1mb 70f 70f
5:12 2 5 mph 1014.1mb 70f 70f
5:06 2
mph
1014mb 70f 70f
5:00 2 3 mph 1014.1mb 70f 70f
4:54 1 5 mph 1014.1mb 70f 70f
4:48 3 5 mph 1014.1mb 70f 71f
4:42 2 3 mph 1014.1mb 70f 71f
4:36 2 3 mph 1014mb 70f 71f
4:30 2 3 mph 1013.9mb 70f 71f
4:24 3 5 mph 1013.9mb 70f 70f
4:18 2 3 mph 1014mb 71f 71f
4:12 3
mph
1014mb 71f 71f
4:06 1 3 mph 1014mb 71f 70f
4:00 2 3 mph 1014mb 71f 70f
3:54 2 3 mph 1014mb 71f 70f
3:48 3
mph
1013.9mb 72f 70f
3:42 2 6 mph 1013.9mb 72f 70f
3:36 5 6 mph 1013.9mb 72f 70f
3:30 3 5 mph 1013.9mb 72f 71f
3:24 3 6 mph 1014mb 72f 70f
3:18 3 6 mph 1014.1mb 72f 70f
3:12 5 6 mph 1014.1mb 72f 70f
3:06 3 7 mph 1014.2mb 72f 70f
3:00 6 7 mph 1014.2mb 72f 71f
2:54 6 7 mph 1014.2mb 72f 71f
2:48 3 5 mph 1014.2mb 72f 71f
2:42 2
mph
1014.1mb 72f 70f
2:36 2
mph
1014.1mb 72f 70f
2:30 2
mph
1014.1mb 72f 70f
2:24 2
mph
1014mb 72f 70f
2:18  -  1 mph 1014mb 71f 70f
2:12  -  mph 1014mb 71f 70f
2:06  -  1 mph 1014.1mb 70f 70f
2:00  -  mph 1014.2mb 69f 70f
1:54  -  1 mph 1014.2mb 68f 70f
1:48  -  1 mph 1014.2mb 68f 70f
1:42  -  mph 1014.2mb 68f 70f
1:36  -  2 mph 1014.1mb 68f 71f
1:30 1 2 mph 1014.2mb 68f 71f
1:24 1 2 mph 1014.1mb 68f 71f
1:18  -  mph 1014.2mb 68f 71f
1:12  -  1 mph 1014.3mb 68f 70f
1:06  -  1 mph 1014.4mb 68f 71f
1:00  -  1 mph 1014.5mb 68f 71f
12:54  -  2 mph 1014.5mb 68f 71f
12:48 1 2 mph 1014.5mb 68f 71f
12:42 2
mph
1014.5mb 68f 71f
12:36 2 3 mph 1014.5mb 68f 71f
12:30 2 3 mph 1014.5mb 68f 71f
12:24 2 3 mph 1014.5mb 68f 71f
12:18 2 3 mph 1014.5mb 68f 71f
12:12 2 3 mph 1014.6mb 68f 71f
12:06 2 3 mph 1014.6mb 68f 71f
12:00 2 3 mph 1014.6mb 69f 71f
Di 07/29 11:54 2 3 mph 1014.7mb 69f 71f
11:48 2 5 mph 1014.8mb 69f 71f
11:42 3 5 mph 1014.7mb 69f 71f
11:36 3 5 mph 1014.7mb 69f 71f
11:30 5 6 mph 1014.9mb 69f 71f
11:24 5 6 mph 1014.9mb 69f 71f
11:18 3 5 mph 1015mb 69f 71f
11:12 3 5 mph 1015mb 69f 71f
11:06 3 5 mph 1015.1mb 70f 71f
11:00 2
mph
1015.2mb 70f 71f
10:54 2
mph
1015.3mb 70f 71f
10:48 2
mph
1015.4mb 70f 71f
10:42 2
mph
1015.4mb 71f 71f
10:36 2 3 mph 1015.4mb 71f 71f
10:30 1 2 mph 1015.4mb 71f 71f
10:24 2 3 mph 1015.4mb 71f 71f
10:18 2 5 mph 1015.4mb 71f 71f
10:12 3 5 mph 1015.5mb 71f 71f
10:06 3 5 mph 1015.5mb 71f 71f
10:00 3
mph
1015.4mb 72f 71f
9:54 2 3 mph 1015.5mb 72f 71f
9:48 2 3 mph 1015.5mb 72f 71f
9:42 2 3 mph 1015.5mb 72f 71f
9:36 1 2 mph 1015.5mb 72f 71f
9:30  -  1 mph 1015.5mb 73f 71f
9:24  -  1 mph 1015.5mb 73f 71f
9:18  -  1 mph 1015.5mb 73f 71f
9:12  -  2 mph 1015.5mb 73f 71f
9:06 2
mph
1015.4mb 74f 71f
9:00 1 2 mph 1015.3mb 74f 71f
8:54 2 3 mph 1015.2mb 73f 71f
8:48 3
mph
1015.1mb 73f 71f
8:42 2 3 mph 1015.2mb 73f 71f
8:36 3 5 mph 1015.1mb 72f 71f
8:30 1 5 mph 1015.1mb 72f 71f
8:24 3 5 mph 1015.1mb 72f 71f
8:18 3 6 mph 1015.1mb 71f 71f
8:12 3 6 mph 1015mb 71f 71f
8:06 3 5 mph 1015.1mb 71f 72f
8:00 3 5 mph 1015mb 71f 72f
7:54 2 5 mph 1014.9mb 71f 72f
7:48 3 5 mph 1014.9mb 71f 72f
7:42 5 7 mph 1014.8mb 71f 72f
7:36 6 7 mph 1014.7mb 70f 72f
7:30 6 7 mph 1014.7mb 70f 72f
7:24 6
mph
1014.6mb 70f 72f
7:18 6
mph
1014.5mb 69f 72f
7:12 6 7 mph 1014.5mb 69f 72f
7:06 5 6 mph 1014.5mb 69f 72f
7:00 5 6 mph 1014.5mb 69f 72f
6:54 5 6 mph 1014.5mb 69f 72f
6:48 5 6 mph 1014.5mb 69f 72f
6:42 5 6 mph 1014.5mb 69f 72f
6:36 5 6 mph 1014.4mb 69f 72f
6:30 6 7 mph 1014.4mb 69f 72f
6:24 5 7 mph 1014.4mb 69f 72f
6:18 6
mph
1014.4mb 69f 72f
6:12 6 8 mph 1014.5mb 69f 72f
6:06 6 7 mph 1014.5mb 69f 72f
6:00 7 8 mph 1014.7mb 69f 73f
5:54 6 9 mph 1014.7mb 69f 73f
5:48 7 9 mph 1014.7mb 69f 73f
5:42 7 9 mph 1014.6mb 69f 73f
5:36 8 9 mph 1014.6mb 69f 73f
5:30 8
mph
1014.6mb 69f 73f
5:24 6 8 mph 1014.6mb 69f 73f
5:18 6 9 mph 1014.5mb 69f 73f
5:12 7 9 mph 1014.5mb 69f 72f
5:06 6 8 mph 1014.5mb 69f 73f
5:00 8 9 mph 1014.5mb 70f 73f
4:54 7 9 mph 1014.5mb 70f 73f
4:48 8 9 mph 1014.5mb 70f 73f
4:42 7 9 mph 1014.5mb 70f 73f
4:36 7 9 mph 1014.6mb 70f 74f
4:30 8 9 mph 1014.6mb 70f 74f
4:24 7 8 mph 1014.6mb 70f 74f
4:18 7
mph
1014.5mb 70f 74f
4:12 6 7 mph 1014.5mb 70f 74f
4:06 6 8 mph 1014.6mb 70f 74f
4:00 6 7 mph 1014.7mb 70f 74f
3:54 6 7 mph 1014.7mb 70f 74f
3:48 6 7 mph 1014.8mb 70f 75f
3:42 5 7 mph 1014.8mb 70f 76f
3:36 6 7 mph 1014.9mb 70f 75f
3:30 5 6 mph 1014.9mb 70f 76f
3:24 3 7 mph 1015mb 70f 76f
3:18 6 7 mph 1015mb 70f 75f
3:12 5 7 mph 1014.9mb 70f 75f
3:06 5 6 mph 1014.9mb 70f 74f
3:00 5 6 mph 1014.9mb 70f 74f
2:54 5 6 mph 1014.9mb 70f 74f
2:48 5 6 mph 1015mb 70f 74f
2:42 5 6 mph 1015.1mb 70f 73f
2:36 5 6 mph 1015.2mb 70f 73f
2:30 5 6 mph 1015.3mb 69f 73f
2:24 5 6 mph 1015.3mb 70f 73f
2:18 5 6 mph 1015.3mb 70f 73f
2:12 5 6 mph 1015.3mb 71f 73f
2:06 5 6 mph 1015.4mb 71f 73f
2:00 5 6 mph 1015.6mb 71f 73f
1:54 5 6 mph 1015.7mb 71f 73f
1:48 6
mph
1015.7mb 71f 73f
1:42 6 7 mph 1015.7mb 71f 73f
1:36 6 7 mph 1015.7mb 71f 73f
1:30 7
mph
1015.7mb 71f 73f
1:24 7 8 mph 1015.7mb 71f 73f
1:18 7 8 mph 1015.8mb 70f 73f
1:12 7 9 mph 1015.8mb 69f 73f
1:06 8
mph
1015.9mb 69f 73f
1:00 6 8 mph 1016.1mb 68f 73f
12:54 7 8 mph 1016.2mb 67f 73f
12:48 7 8 mph 1016.2mb 67f 73f
12:42 7
mph
1016.2mb 67f 73f
12:36 7 8 mph 1016.4mb 68f 73f
12:30 7 8 mph 1016.3mb 68f 73f
12:24 8
mph
1016.2mb 68f 73f
12:18 6 8 mph 1016.4mb 68f 73f
12:12 6 8 mph 1016.5mb 68f 73f
12:06 6 7 mph 1016.6mb 68f 73f
12:00 6 7 mph 1016.7mb 68f 73f
11:54 5 7 mph 1016.8mb 68f 73f
11:48 6 8 mph 1016.8mb 68f 72f
11:42 6 7 mph 1016.9mb 68f 72f
11:36 6 7 mph 1016.9mb 68f 72f
11:30 6 7 mph 1017mb 69f 73f
11:24 6
mph
1017.2mb 69f 73f
11:18 6
mph
1017.2mb 70f 73f
11:12 5 6 mph 1017.2mb 70f 73f
11:06 5 6 mph 1017.3mb 70f 74f
11:00 3 5 mph 1017.3mb 70f 73f
10:54 5 6 mph 1017.3mb 71f 73f
10:48 5 6 mph 1017.3mb 71f 73f
10:42 6
mph
1017.3mb 71f 73f
10:36 6
mph
1017.3mb 71f 73f
10:30 6
mph
1017.3mb 71f 73f
10:24 5 7 mph 1017.4mb 71f 72f
10:18 5 6 mph 1017.3mb 71f 72f
10:12 6 7 mph 1017.3mb 71f 73f
10:06 5 7 mph 1017.3mb 71f 73f
10:00 6
mph
1017.3mb 71f 73f
9:54 5 6 mph 1017.4mb 71f 73f
9:48 5 6 mph 1017.4mb 71f 72f
9:42 5 6 mph 1017.3mb 71f 72f
9:36 5 6 mph 1017.3mb 71f 71f
9:30 6 7 mph 1017.3mb 71f 71f
9:24 7
mph
1017.3mb 71f 72f
9:18 6 7 mph 1017.3mb 70f 73f
9:12 2 3 mph 1017.4mb 70f 74f
9:06 2
mph
1017.3mb 70f 74f
9:00 2
mph
1017.3mb 70f 74f
8:54  -  1 mph 1017.4mb 70f 74f
8:48  -  1 mph 1017.4mb 70f 74f
8:42 1 2 mph 1017.3mb 70f 73f
8:36 2 3 mph 1017.2mb 70f 72f
8:30 3 5 mph 1017.1mb 70f 72f
8:24 3 5 mph 1017mb 70f 72f
8:18 3 5 mph 1016.9mb 69f 72f
8:12 3 5 mph 1017mb 69f 72f
8:06 5
mph
1017mb 69f 72f
8:00 3
mph
1017mb 69f 72f
7:54 3 5 mph 1017mb 69f 72f
7:48 5 6 mph 1016.9mb 70f 71f
7:42 5
mph
1016.9mb 69f 72f
7:36 3
mph
1016.9mb 69f 72f
7:30 2 6 mph 1016.9mb 69f 72f
7:24 6
mph
1016.7mb 70f 71f
7:18 6
mph
1016.7mb 70f 71f
7:12 3 5 mph 1016.7mb 69f 71f
7:06 2 3 mph 1016.7mb 69f 71f
7:00 2 5 mph 1016.8mb 69f 71f
6:54 3 5 mph 1016.6mb 69f 70f
6:48  -  1 mph 1016.7mb 69f 70f